Time;durP1;ratioP1;P1;durP2;ratioP2;P2;SDS_P1;SDS_P2;PMS_P1;PMS_P2;Temp;Humidity;BMP_temperature;BMP_pressure;BME280_temperature;BME280_humidity;BME280_pressure;Samples;Min_cycle;Max_cycle;Signal;HPM_P1;HPM_P2
2022/07/27 00:01:20;;;;;;;;;0.00;0.00;;;;;17.04;54.67;102045.94;5071940;28;9010;-64
2022/07/27 00:03:47;;;;;;;;;0.00;0.00;;;;;17.04;54.86;102043.22;5072565;28;9007;-65
2022/07/27 00:06:14;;;;;;;;;0.00;0.00;;;;;17.02;55.17;102048.03;5072585;28;8819;-65
2022/07/27 00:08:40;;;;;;;;;0.00;0.00;;;;;17.00;55.10;102050.13;5071749;28;8908;-65
2022/07/27 00:11:08;;;;;;;;;0.00;0.00;;;;;16.99;55.33;102043.00;5072265;28;8989;-64
2022/07/27 00:13:35;;;;;;;;;0.00;0.00;;;;;16.98;55.51;102046.78;5072174;28;8907;-65
2022/07/27 00:16:01;;;;;;;;;2.00;0.33;;;;;16.98;55.74;102043.22;5073800;28;8926;-65
2022/07/27 00:18:28;;;;;;;;;0.00;0.00;;;;;16.95;55.94;102040.91;5079087;28;9000;-65
2022/07/27 00:20:55;;;;;;;;;0.00;0.00;;;;;16.94;56.13;102041.97;5072059;28;9011;-64
2022/07/27 00:23:21;;;;;;;;;0.00;0.00;;;;;16.90;56.08;102035.25;5067365;28;8970;-65
2022/07/27 00:25:48;;;;;;;;;1.00;1.00;;;;;16.86;56.49;102032.13;5072223;28;8971;-65
2022/07/27 00:28:14;;;;;;;;;0.00;0.00;;;;;16.82;56.58;102041.72;5071889;28;8926;-65
2022/07/27 00:30:41;;;;;;;;;1.00;0.00;;;;;16.82;57.09;102039.00;5070736;28;8903;-65
2022/07/27 00:33:07;;;;;;;;;0.75;0.00;;;;;16.79;56.71;102042.97;5071014;28;9009;-65
2022/07/27 00:35:34;;;;;;;;;0.00;0.00;;;;;16.77;57.01;102044.22;5071781;28;8807;-65
2022/07/27 00:38:01;;;;;;;;;0.00;0.00;;;;;16.73;57.04;102040.22;5071615;28;8987;-65
2022/07/27 00:40:28;;;;;;;;;1.33;0.00;;;;;16.69;57.05;102034.34;5071686;28;8957;-65
2022/07/27 00:42:55;;;;;;;;;0.00;0.00;;;;;16.63;57.53;102040.59;5071448;28;8923;-65
2022/07/27 00:45:21;;;;;;;;;0.00;0.00;;;;;16.59;57.79;102035.78;5066303;28;8930;-65
2022/07/27 00:47:47;;;;;;;;;1.00;1.00;;;;;16.55;58.15;102035.34;5056141;28;8898;-65
2022/07/27 00:50:20;;;;;;;;;0.50;0.50;;;;;16.53;58.19;102029.28;5061004;28;8891;-65
2022/07/27 00:52:47;;;;;;;;;1.00;1.00;;;;;16.51;58.46;102042.25;5071424;28;8851;-65
2022/07/27 00:55:14;;;;;;;;;2.00;0.00;;;;;16.50;58.54;102043.28;5071715;28;9695;-65
2022/07/27 00:57:41;;;;;;;;;2.00;1.00;;;;;16.47;58.34;102030.09;5067629;28;8999;-64
2022/07/27 01:00:24;;;;;;;;;1.00;1.00;;;;;16.45;58.66;102038.47;5072590;28;9095;-65
2022/07/27 01:02:51;;;;;;;;;0.00;0.00;;;;;16.43;58.75;102037.81;5071680;28;9079;-64
2022/07/27 01:05:18;;;;;;;;;0.00;0.00;;;;;16.44;58.66;102041.38;5072083;28;9056;-65
2022/07/27 01:07:47;;;;;;;;;1.00;1.00;;;;;16.44;58.97;102033.22;5064595;28;8921;-65
2022/07/27 01:10:14;;;;;;;;;0.67;0.67;;;;;16.45;59.13;102027.59;5051231;28;8982;-65
2022/07/27 01:12:40;;;;;;;;;0.67;0.00;;;;;16.47;58.96;102036.38;5051095;28;9064;-65
2022/07/27 01:15:07;;;;;;;;;0.00;0.00;;;;;16.50;58.77;102026.97;5051222;28;8895;-65
2022/07/27 01:17:34;;;;;;;;;0.67;0.67;;;;;16.53;58.81;102029.28;5052854;28;8817;-64
2022/07/27 01:20:00;;;;;;;;;0.25;0.25;;;;;16.55;58.35;102032.63;5068106;28;8970;-67
2022/07/27 01:22:27;;;;;;;;;0.00;0.00;;;;;16.58;58.33;102029.50;5086520;28;8851;-65
2022/07/27 01:24:53;;;;;;;;;0.00;0.00;;;;;16.59;58.80;102027.63;5071008;28;8872;-65
2022/07/27 01:27:20;;;;;;;;;0.00;0.00;;;;;16.58;58.60;102026.78;5064035;28;9011;-65
2022/07/27 01:29:47;;;;;;;;;0.00;0.00;;;;;16.59;58.47;102028.47;5050782;28;8982;-65
2022/07/27 01:32:14;;;;;;;;;0.00;0.00;;;;;16.58;58.54;102034.94;5050930;28;9007;-65
2022/07/27 01:34:40;;;;;;;;;1.00;1.00;;;;;16.58;58.76;102024.06;5051936;28;8986;-65
2022/07/27 01:37:07;;;;;;;;;0.00;0.00;;;;;16.59;58.36;102030.34;5068840;28;9078;-65
2022/07/27 01:39:33;;;;;;;;;0.00;0.00;;;;;16.60;58.33;102021.13;5051336;28;8901;-65
2022/07/27 01:42:00;;;;;;;;;1.00;0.00;;;;;16.59;58.32;102020.31;5050238;28;8834;-65
2022/07/27 01:44:27;;;;;;;;;0.00;0.00;;;;;16.60;58.16;102019.25;5050756;28;8845;-65
2022/07/27 01:46:53;;;;;;;;;1.75;0.00;;;;;16.62;57.70;102016.34;5051491;28;8844;-65
2022/07/27 01:49:20;;;;;;;;;1.33;0.00;;;;;16.62;57.81;102011.75;5070411;28;8815;-65
2022/07/27 01:51:47;;;;;;;;;0.00;0.00;;;;;16.63;58.08;102012.56;5065691;28;9026;-64
2022/07/27 01:54:14;;;;;;;;;0.25;0.25;;;;;16.63;57.88;102018.00;5070698;28;8819;-65
2022/07/27 01:56:40;;;;;;;;;1.75;1.00;;;;;16.62;57.61;102017.19;5070203;28;8831;-65
2022/07/27 01:59:07;;;;;;;;;0.75;0.25;;;;;16.64;57.68;102015.09;5070604;28;8854;-65
2022/07/27 02:01:41;;;;;;;;;0.50;0.50;;;;;16.67;57.16;102017.41;5067529;28;8835;-65
2022/07/27 02:04:08;;;;;;;;;0.00;0.00;;;;;16.68;57.27;102012.78;5049105;28;8845;-65
2022/07/27 02:06:34;;;;;;;;;0.00;0.00;;;;;16.70;57.15;102011.56;5056668;28;8918;-65
2022/07/27 02:09:01;;;;;;;;;0.00;0.00;;;;;16.71;57.08;102010.50;5070438;28;8964;-65
2022/07/27 02:14:17;;;;;;;;;0.00;0.00;;;;;16.72;57.11;102012.16;5069184;28;9572;-65
2022/07/27 02:16:46;;;;;;;;;1.00;0.33;;;;;16.72;57.19;102009.44;5069928;28;9030;-65
2022/07/27 02:19:15;;;;;;;;;0.00;0.00;;;;;16.74;56.88;102018.28;5070348;28;9007;-65
2022/07/27 02:21:43;;;;;;;;;0.00;0.00;;;;;16.74;56.95;102006.56;5063528;28;9540;-65
2022/07/27 02:24:10;;;;;;;;;0.00;0.00;;;;;16.74;56.71;102010.13;5066595;28;8812;-65
2022/07/27 02:26:36;;;;;;;;;0.00;0.00;;;;;16.73;56.44;102013.91;5069890;28;9694;-65
2022/07/27 02:29:04;;;;;;;;;0.00;0.00;;;;;16.73;56.62;102013.03;5070209;28;8826;-65
2022/07/27 02:31:30;;;;;;;;;0.00;0.00;;;;;16.74;56.30;102001.97;5066802;28;8991;-65
2022/07/27 02:33:59;;;;;;;;;0.00;0.00;;;;;16.77;56.16;102006.13;5070001;28;8910;-65
2022/07/27 02:36:27;;;;;;;;;0.00;0.00;;;;;16.78;56.55;102002.41;5069312;28;8845;-65
2022/07/27 02:38:55;;;;;;;;;0.00;0.00;;;;;16.80;56.43;102003.84;5069710;28;8866;-64
2022/07/27 02:41:22;;;;;;;;;0.00;0.00;;;;;16.79;56.42;102007.63;5066852;28;8830;-65
2022/07/27 02:43:48;;;;;;;;;0.00;0.00;;;;;16.80;55.83;102003.84;5050134;28;8892;-65
2022/07/27 02:46:15;;;;;;;;;0.00;0.00;;;;;16.80;55.90;102005.72;5050061;28;8964;-64
2022/07/27 02:48:41;;;;;;;;;0.75;0.25;;;;;16.77;55.97;102012.44;5049752;28;8843;-65
2022/07/27 02:51:08;;;;;;;;;1.50;0.00;;;;;16.78;55.76;102005.94;5050776;28;8866;-65
2022/07/27 02:53:34;;;;;;;;;0.00;0.00;;;;;16.83;56.34;102009.94;5066497;28;8811;-65
2022/07/27 02:56:00;;;;;;;;;0.00;0.00;;;;;16.82;57.09;102009.09;5069531;28;8831;-65
2022/07/27 02:58:27;;;;;;;;;0.25;0.00;;;;;16.82;57.05;102000.94;5067828;28;8938;-65
2022/07/27 03:00:53;;;;;;;;;0.00;0.00;;;;;16.79;57.43;102002.19;5070343;28;8954;-65
2022/07/27 03:03:24;;;;;;;;;0.00;0.00;;;;;16.77;57.67;101996.13;5054138;28;8920;-65
2022/07/27 03:06:04;;;;;;;;;0.75;0.00;;;;;16.74;57.38;102001.97;5065072;28;8815;-65
2022/07/27 03:08:30;;;;;;;;;0.00;0.00;;;;;16.74;57.51;102001.97;5073402;28;8846;-65
2022/07/27 03:10:57;;;;;;;;;0.00;0.00;;;;;16.73;57.44;101996.72;5073554;28;8866;-65
2022/07/27 03:13:23;;;;;;;;;1.00;0.00;;;;;16.71;57.62;101999.63;5060753;28;8926;-65
2022/07/27 03:15:50;;;;;;;;;0.00;0.00;;;;;16.71;57.77;102002.34;5072442;28;8831;-64
2022/07/27 03:18:16;;;;;;;;;0.00;0.00;;;;;16.72;57.92;102004.00;5073452;28;9001;-64
2022/07/27 03:20:43;;;;;;;;;0.00;0.00;;;;;16.71;58.36;102002.34;5072858;28;8980;-64
2022/07/27 03:23:09;;;;;;;;;0.75;0.75;;;;;16.70;58.44;102000.69;5053270;28;8940;-64
2022/07/27 03:25:36;;;;;;;;;1.00;1.00;;;;;16.70;58.14;101999.84;5053195;28;8826;-64
2022/07/27 03:28:02;;;;;;;;;0.00;0.00;;;;;16.69;58.40;102003.59;5053078;28;8907;-64
2022/07/27 03:30:31;;;;;;;;;0.00;0.00;;;;;16.66;58.06;101996.69;5048872;28;8858;-64
2022/07/27 03:32:57;;;;;;;;;0.00;0.00;;;;;16.66;58.17;102004.03;5068508;28;8818;-64
2022/07/27 03:35:24;;;;;;;;;1.00;0.00;;;;;16.64;57.75;102006.09;5053782;28;8826;-64
2022/07/27 03:37:51;;;;;;;;;0.00;0.00;;;;;16.63;57.50;102007.97;5053246;28;8829;-64
2022/07/27 03:40:17;;;;;;;;;0.00;0.00;;;;;16.62;57.41;102003.59;5053099;28;8825;-65
2022/07/27 03:42:44;;;;;;;;;0.00;0.00;;;;;16.64;57.58;102006.94;5069263;28;8995;-65
2022/07/27 03:45:11;;;;;;;;;0.00;0.00;;;;;16.66;57.52;102013.00;5072955;28;8795;-65
2022/07/27 03:47:37;;;;;;;;;0.00;0.00;;;;;16.66;57.66;102018.44;5072393;28;8843;-65
2022/07/27 03:50:04;;;;;;;;;0.25;0.00;;;;;16.66;57.78;102017.63;5072907;28;8831;-67
2022/07/27 03:52:31;;;;;;;;;0.00;0.00;;;;;16.67;57.77;102017.41;5070149;28;9495;-65
2022/07/27 03:54:57;;;;;;;;;0.00;0.00;;;;;16.68;57.76;102021.78;5052725;28;8864;-65
2022/07/27 03:57:24;;;;;;;;;2.25;0.25;;;;;16.68;57.70;102026.38;5051620;28;8863;-65
2022/07/27 03:59:50;;;;;;;;;0.00;0.00;;;;;16.68;57.98;102018.22;5062773;28;8900;-65
2022/07/27 04:02:17;;;;;;;;;0.00;0.00;;;;;16.68;58.11;102015.50;5073032;28;8945;-65
2022/07/27 04:04:44;;;;;;;;;0.00;0.00;;;;;16.68;57.80;102020.94;5055499;28;8829;-65
2022/07/27 04:07:10;;;;;;;;;0.00;0.00;;;;;16.68;57.85;102018.22;5053855;28;8955;-65
2022/07/27 04:09:37;;;;;;;;;0.00;0.00;;;;;16.67;57.66;102017.41;5072504;28;9056;-65
2022/07/27 04:12:07;;;;;;;;;0.00;0.00;;;;;16.68;57.86;102015.50;5072247;28;8866;-65
2022/07/27 04:14:33;;;;;;;;;0.00;0.00;;;;;16.65;58.16;102016.78;5067315;28;8811;-65
2022/07/27 04:17:00;;;;;;;;;0.00;0.00;;;;;16.64;58.06;102019.69;5072334;28;8984;-65
2022/07/27 04:19:26;;;;;;;;;0.00;0.00;;;;;16.62;58.19;102019.06;5072432;28;8903;-65
2022/07/27 04:21:53;;;;;;;;;0.00;0.00;;;;;16.60;57.72;102027.41;5058943;28;8825;-65
2022/07/27 04:24:19;;;;;;;;;0.00;0.00;;;;;16.58;57.43;102015.09;5064798;28;8908;-65
2022/07/27 04:26:46;;;;;;;;;0.25;0.25;;;;;16.53;57.10;102018.44;5071846;28;8915;-65
2022/07/27 04:29:12;;;;;;;;;1.00;0.00;;;;;16.54;56.76;102023.66;5072087;28;8885;-65
2022/07/27 04:31:45;;;;;;;;;0.00;0.00;;;;;16.54;56.79;102026.38;5071810;28;8831;-64
2022/07/27 04:34:12;;;;;;;;;0.00;0.00;;;;;16.55;56.91;102027.19;5062768;28;9034;-65
2022/07/27 04:36:38;;;;;;;;;1.00;1.00;;;;;16.55;56.28;102032.63;5051637;28;9508;-65
2022/07/27 04:39:05;;;;;;;;;0.00;0.00;;;;;16.55;55.78;102029.91;5051580;28;8838;-65
2022/07/27 04:41:31;;;;;;;;;0.00;0.00;;;;;16.55;56.07;102029.91;5070805;22;8945;-66
2022/07/27 04:43:59;;;;;;;;;0.50;0.50;;;;;16.56;56.07;102031.59;5031587;28;8829;-65
2022/07/27 04:46:28;;;;;;;;;1.00;1.00;;;;;16.58;56.07;102032.22;5031796;28;9655;-67
2022/07/27 04:48:55;;;;;;;;;0.00;0.00;;;;;16.54;55.96;102031.78;5031219;28;8821;-65
2022/07/27 04:51:21;;;;;;;;;0.00;0.00;;;;;16.56;56.08;102031.59;5023955;28;8829;-66
2022/07/27 04:53:48;;;;;;;;;1.00;0.00;;;;;16.60;55.47;102034.72;5007829;28;8900;-66
2022/07/27 04:56:24;;;;;;;;;0.25;0.00;;;;;16.62;55.59;102033.50;5011372;28;8823;-65
2022/07/27 04:58:50;;;;;;;;;0.00;0.00;;;;;16.67;55.91;102043.75;5010022;28;8831;-67
2022/07/27 05:01:17;;;;;;;;;0.00;0.00;;;;;16.72;56.18;102047.50;5011273;28;8949;-66
2022/07/27 05:03:43;;;;;;;;;1.00;0.00;;;;;16.75;55.84;102047.16;5010759;28;9053;-65
2022/07/27 05:06:10;;;;;;;;;0.00;0.00;;;;;16.70;55.43;102046.91;4993684;28;8913;-66
2022/07/27 05:08:36;;;;;;;;;0.00;0.00;;;;;16.67;55.46;102044.59;5010993;28;9650;-66
2022/07/27 05:11:03;;;;;;;;;0.00;0.00;;;;;16.69;55.38;102045.22;5011180;28;9005;-66
2022/07/27 05:13:29;;;;;;;;;2.00;0.00;;;;;16.72;55.72;102052.94;5007426;28;8969;-67
2022/07/27 05:15:56;;;;;;;;;0.25;0.00;;;;;16.72;55.79;102043.97;5011090;28;8830;-66
2022/07/27 05:18:22;;;;;;;;;1.00;1.00;;;;;16.74;55.29;102050.91;5010458;28;8861;-67
2022/07/27 05:20:49;;;;;;;;;0.00;0.00;;;;;16.74;54.50;102053.63;5008349;28;9515;-67
2022/07/27 05:23:16;;;;;;;;;0.00;0.00;;;;;16.78;54.66;102051.34;5009147;28;8897;-67
2022/07/27 05:25:43;;;;;;;;;0.00;0.00;;;;;16.74;54.68;102048.19;5010959;28;8855;-67
2022/07/27 05:28:12;;;;;;;;;0.00;0.00;;;;;16.74;54.30;102050.91;5010620;28;8874;-67
2022/07/27 05:30:39;;;;;;;;;1.00;1.00;;;;;16.72;54.57;102052.94;5010714;28;8959;-67
2022/07/27 05:33:05;;;;;;;;;1.00;1.00;;;;;16.68;54.48;102054.41;5009308;28;9042;-68
2022/07/27 05:35:32;;;;;;;;;0.75;0.75;;;;;16.66;54.69;102055.69;5010898;28;8847;-68
2022/07/27 05:37:58;;;;;;;;;0.75;0.00;;;;;16.69;54.96;102060.69;5003887;28;8867;-68
2022/07/27 05:40:26;;;;;;;;;1.00;0.00;;;;;16.69;55.26;102064.25;4991242;28;8805;-67
2022/07/27 05:42:52;;;;;;;;;0.25;0.25;;;;;16.73;54.97;102067.41;4991714;28;8822;-66
2022/07/27 05:45:19;;;;;;;;;1.00;1.00;;;;;16.81;54.97;102075.38;4992347;28;8818;-67
2022/07/27 05:47:45;;;;;;;;;0.00;0.00;;;;;16.78;54.16;102065.78;5003594;28;8839;-68
2022/07/27 05:50:12;;;;;;;;;0.75;0.75;;;;;16.83;53.90;102077.91;5010940;28;8815;-66
2022/07/27 05:52:38;;;;;;;;;0.00;0.00;;;;;16.86;53.73;102075.63;5010987;28;8836;-67
2022/07/27 05:55:05;;;;;;;;;0.00;0.00;;;;;16.92;53.22;102076.69;4996136;28;8814;-66
2022/07/27 05:57:32;;;;;;;;;0.25;0.00;;;;;16.97;52.80;102080.44;4991038;28;8857;-67
2022/07/27 06:00:00;;;;;;;;;0.25;0.25;;;;;17.08;52.45;102072.72;4991398;28;8830;-67
2022/07/27 06:02:37;;;;;;;;;0.00;0.00;;;;;17.25;52.28;102066.66;4991064;28;8887;-67
2022/07/27 06:05:04;;;;;;;;;0.50;0.00;;;;;17.44;51.73;102072.34;5008559;28;8851;-67
2022/07/27 06:10:16;;;;;;;;;0.00;0.00;;;;;17.78;51.33;102069.41;5008243;28;8890;-67
2022/07/27 06:12:44;;;;;;;;;0.00;0.00;;;;;17.82;50.71;102085.31;5002141;28;8845;-68
2022/07/27 06:15:12;;;;;;;;;0.75;0.75;;;;;17.86;50.39;102072.94;4990882;28;8857;-68
2022/07/27 06:17:39;;;;;;;;;0.00;0.00;;;;;17.93;50.01;102080.06;5006594;28;9599;-68
2022/07/27 06:20:07;;;;;;;;;0.00;0.00;;;;;17.95;49.84;102077.13;4993108;28;8820;-68
2022/07/27 06:22:48;;;;;;;;;0.00;0.00;;;;;17.99;49.30;102076.50;5006560;28;8830;-68
2022/07/27 06:25:15;;;;;;;;;0.00;0.00;;;;;18.01;49.59;102077.09;4998376;28;8854;-69
2022/07/27 06:27:42;;;;;;;;;0.00;0.00;;;;;18.03;49.47;102085.06;4997889;28;8847;-68
2022/07/27 06:30:10;;;;;;;;;0.00;0.00;;;;;18.04;49.42;102090.31;5007717;28;8831;-68
2022/07/27 06:32:37;;;;;;;;;0.25;0.00;;;;;18.05;49.37;102088.41;5002395;28;8838;-68
2022/07/27 06:35:04;;;;;;;;;0.00;0.00;;;;;18.01;48.89;102093.44;4992789;28;8847;-68
2022/07/27 06:37:31;;;;;;;;;0.00;0.00;;;;;17.91;49.68;102093.06;5012794;28;8831;-68
2022/07/27 06:39:59;;;;;;;;;1.00;0.00;;;;;17.80;49.70;102093.69;5012322;28;8851;-68
2022/07/27 06:42:26;;;;;;;;;1.00;1.00;;;;;17.76;49.53;102095.19;5013384;28;8865;-69
2022/07/27 06:44:53;;;;;;;;;1.75;0.25;;;;;17.70;49.93;102090.53;4994196;28;8824;-67
2022/07/27 06:47:21;;;;;;;;;0.00;0.00;;;;;17.61;49.70;102092.63;4994610;28;8968;-68
2022/07/27 06:49:54;;;;;;;;;0.00;0.00;;;;;17.53;50.02;102084.69;5000992;28;8835;-70
2022/07/27 06:52:22;;;;;;;;;1.00;0.00;;;;;17.55;50.43;102088.03;5004852;28;8866;-67
2022/07/27 06:54:49;;;;;;;;;0.00;0.00;;;;;17.57;50.13;102088.66;5003831;28;8889;-68
2022/07/27 06:57:15;;;;;;;;;0.00;0.00;;;;;17.54;50.32;102091.78;5004203;28;9612;-68
2022/07/27 06:59:43;;;;;;;;;0.00;0.00;;;;;17.45;50.11;102093.06;5001897;28;8834;-69
2022/07/27 07:02:09;;;;;;;;;0.75;0.75;;;;;17.38;50.78;102092.22;4995136;28;8932;-69
2022/07/27 07:04:36;;;;;;;;;0.00;0.00;;;;;17.44;50.79;102089.50;4999459;28;8862;-69
2022/07/27 07:07:03;;;;;;;;;0.00;0.00;;;;;17.52;51.21;102089.28;5008264;28;8898;-67
2022/07/27 07:09:33;;;;;;;;;0.00;0.00;;;;;17.54;50.79;102099.97;5004458;28;8823;-68
2022/07/27 07:12:01;;;;;;;;;0.00;0.00;;;;;17.54;49.99;102099.97;5012021;28;8850;-68
2022/07/27 07:14:28;;;;;;;;;0.50;0.00;;;;;17.53;49.91;102106.47;5007030;28;8815;-68
2022/07/27 07:16:54;;;;;;;;;0.00;0.00;;;;;17.45;49.56;102104.78;4973259;28;8853;-68
2022/07/27 07:19:20;;;;;;;;;0.00;0.00;;;;;17.45;49.10;102109.38;5001524;28;8843;-68
2022/07/27 07:21:47;;;;;;;;;0.00;0.00;;;;;17.48;49.67;102119.88;5002881;28;8826;-67
2022/07/27 07:24:13;;;;;;;;;0.00;0.00;;;;;17.45;49.72;102110.22;5001254;28;8826;-68
2022/07/27 07:26:40;;;;;;;;;0.00;0.00;;;;;17.48;49.67;102109.81;4999677;28;8923;-69
2022/07/27 07:29:06;;;;;;;;;1.00;0.25;;;;;17.40;49.87;102106.47;4999357;28;8947;-68
2022/07/27 07:31:33;;;;;;;;;0.00;0.00;;;;;17.49;50.27;102116.09;5003269;28;8837;-68
2022/07/27 07:33:59;;;;;;;;;0.00;0.00;;;;;17.54;50.05;102116.28;5008559;28;8908;-67
2022/07/27 07:36:26;;;;;;;;;0.00;0.00;;;;;17.53;49.51;102117.34;5005228;28;8836;-67
2022/07/27 07:38:54;;;;;;;;;0.00;0.00;;;;;17.48;49.68;102119.88;5010972;28;8946;-69
2022/07/27 07:41:23;;;;;;;;;0.00;0.00;;;;;17.55;49.71;102120.72;5008719;28;8857;-67
2022/07/27 07:43:50;;;;;;;;;0.00;0.00;;;;;17.67;49.98;102126.38;5005937;28;8832;-67
2022/07/27 07:46:16;;;;;;;;;0.00;0.00;;;;;17.70;49.38;102126.78;5006390;28;8832;-67
2022/07/27 07:48:43;;;;;;;;;1.00;0.00;;;;;17.77;49.21;102134.97;4999866;28;8860;-68
2022/07/27 07:51:10;;;;;;;;;0.00;0.00;;;;;17.81;48.62;102130.78;5012635;28;8831;-67
2022/07/27 07:53:37;;;;;;;;;0.00;0.00;;;;;17.83;48.75;102128.69;4994533;28;8827;-67
2022/07/27 07:56:08;;;;;;;;;0.00;0.00;;;;;17.89;48.90;102127.84;5010884;28;8827;-67
2022/07/27 07:58:34;;;;;;;;;0.00;0.00;;;;;17.91;48.83;102130.38;5012092;28;8843;-66
2022/07/27 08:01:01;;;;;;;;;0.00;0.00;;;;;17.96;48.80;102130.56;5001251;28;8908;-66
2022/07/27 08:03:27;;;;;;;;;0.00;0.00;;;;;18.00;48.03;102131.81;4981295;28;8812;-67
2022/07/27 08:05:54;;;;;;;;;0.75;0.00;;;;;17.96;48.04;102130.56;5008359;28;8844;-67
2022/07/27 08:08:20;;;;;;;;;0.50;0.50;;;;;17.94;47.76;102133.47;5003745;28;8819;-67
2022/07/27 08:10:50;;;;;;;;;1.00;0.00;;;;;17.99;47.17;102127.44;5000591;28;8852;-67
2022/07/27 08:13:16;;;;;;;;;1.00;0.00;;;;;17.98;46.28;102117.56;5000158;28;8937;-67
2022/07/27 08:15:47;;;;;;;;;0.00;0.00;;;;;18.00;46.42;102123.63;5000912;28;8922;-67
2022/07/27 08:18:13;;;;;;;;;1.00;0.00;;;;;18.08;46.88;102131.59;4999796;28;8835;-67
2022/07/27 08:20:40;;;;;;;;;0.00;0.00;;;;;18.10;47.10;102126.75;5001783;28;8841;-68
2022/07/27 08:23:06;;;;;;;;;0.00;0.00;;;;;18.16;47.38;102128.63;5001634;28;8951;-67
2022/07/27 08:25:33;;;;;;;;;0.00;0.00;;;;;18.20;46.43;102134.50;5001828;28;8822;-66
2022/07/27 08:27:59;;;;;;;;;0.00;0.00;;;;;18.23;45.92;102132.19;5001068;28;9835;-66
2022/07/27 08:30:28;;;;;;;;;0.50;0.00;;;;;18.26;45.50;102128.19;5000917;28;8837;-66
2022/07/27 08:33:02;;;;;;;;;0.00;0.00;;;;;18.33;45.10;102134.47;5003663;28;8823;-66
2022/07/27 08:35:31;;;;;;;;;0.75;0.75;;;;;18.33;45.10;102131.72;4994670;28;8831;-66
2022/07/27 08:37:59;;;;;;;;;0.50;0.00;;;;;18.37;44.68;102135.69;5009876;28;8863;-68
2022/07/27 08:40:25;;;;;;;;;0.00;0.00;;;;;18.43;44.68;102137.59;5005718;28;8962;-67
2022/07/27 08:43:18;;;;;;;;;0.00;0.00;;;;;18.51;44.11;102128.31;5012094;28;8815;-66
2022/07/27 08:45:55;;;;;;;;;0.00;0.00;;;;;18.57;44.07;102135.63;5012162;28;8881;-67
2022/07/27 08:48:26;;;;;;;;;0.00;0.00;;;;;18.59;44.27;102128.06;5011753;28;8913;-66
2022/07/27 08:50:54;;;;;;;;;0.00;0.00;;;;;18.64;44.57;102131.00;5011977;28;8905;-66
2022/07/27 08:53:22;;;;;;;;;0.00;0.00;;;;;18.64;44.03;102136.44;5011632;28;8819;-67
2022/07/27 08:55:48;;;;;;;;;0.25;0.25;;;;;18.64;43.78;102130.16;5011938;28;8938;-67
2022/07/27 08:58:15;;;;;;;;;0.50;0.50;;;;;18.68;44.40;102131.41;5012623;28;8828;-65
2022/07/27 09:00:47;;;;;;;;;0.00;0.00;;;;;18.81;44.05;102138.72;5012305;28;8851;-66
2022/07/27 09:03:14;;;;;;;;;0.00;0.00;;;;;18.85;43.35;102142.69;5013694;28;8965;-65
2022/07/27 09:05:53;;;;;;;;;0.00;0.00;;;;;18.91;44.22;102147.25;5014437;28;8840;-67
2022/07/27 09:08:23;;;;;;;;;0.00;0.00;;;;;18.93;43.11;102139.72;5013611;28;8923;-67
2022/07/27 09:10:53;;;;;;;;;0.75;0.75;;;;;18.88;42.60;102144.97;5013750;28;8831;-66
2022/07/27 09:13:32;;;;;;;;;0.00;0.00;;;;;18.73;42.77;102140.63;5013582;28;8832;-66
2022/07/27 09:16:02;;;;;;;;;1.00;0.00;;;;;18.70;43.23;102140.22;5014043;28;8819;-67
2022/07/27 09:18:43;;;;;;;;;0.00;0.00;;;;;18.67;43.70;102138.72;4998440;28;8862;-67
2022/07/27 09:21:14;;;;;;;;;0.00;0.00;;;;;18.64;43.80;102139.19;5013625;28;8835;-67
2022/07/27 09:23:52;;;;;;;;;0.50;0.50;;;;;18.55;44.13;102140.44;5013803;28;8953;-67
2022/07/27 09:26:24;;;;;;;;;0.00;0.00;;;;;18.49;44.49;102141.34;5013654;28;8885;-67
2022/07/27 09:29:08;;;;;;;;;0.00;0.00;;;;;18.44;45.43;102141.97;4997691;28;8836;-66
2022/07/27 09:31:47;;;;;;;;;0.25;0.25;;;;;18.45;46.65;102143.66;5013297;28;8834;-66
2022/07/27 09:34:29;;;;;;;;;0.00;0.00;;;;;18.47;47.28;102146.16;4996368;28;9550;-66
2022/07/27 09:36:57;;;;;;;;;0.00;0.00;;;;;18.44;47.35;102143.88;5013470;28;8838;-66
2022/07/27 09:39:27;;;;;;;;;0.00;0.00;;;;;18.46;47.07;102141.75;5013745;28;8830;-66
2022/07/27 09:41:56;;;;;;;;;0.00;0.00;;;;;18.47;46.67;102146.16;5013367;28;8954;-66
2022/07/27 09:44:41;;;;;;;;;1.00;0.00;;;;;18.46;46.39;102142.59;5012857;28;8815;-66
2022/07/27 09:47:25;;;;;;;;;0.00;0.00;;;;;18.47;46.62;102137.97;5013198;28;8819;-65
2022/07/27 09:49:54;;;;;;;;;0.00;0.00;;;;;18.58;46.48;102141.94;4996409;28;8853;-66
2022/07/27 09:52:26;;;;;;;;;0.33;0.33;;;;;18.71;46.45;102137.28;5013834;28;8851;-66
2022/07/27 09:54:53;;;;;;;;;1.00;0.00;;;;;18.76;46.27;102134.75;5013596;28;8839;-66
2022/07/27 09:57:19;;;;;;;;;0.00;0.00;;;;;18.86;46.04;102133.44;5013547;28;8828;-66
2022/07/27 09:59:46;;;;;;;;;0.00;0.00;;;;;19.00;46.44;102137.78;5013086;28;8815;-66
2022/07/27 10:02:13;;;;;;;;;0.50;0.50;;;;;19.14;46.32;102136.63;5013090;28;8839;-66
2022/07/27 10:04:40;;;;;;;;;1.00;0.00;;;;;19.27;46.67;102135.69;5013128;28;8860;-66
2022/07/27 10:07:06;;;;;;;;;0.00;0.00;;;;;19.37;46.59;102132.50;4995295;28;8843;-66
2022/07/27 10:09:38;;;;;;;;;0.00;0.00;;;;;19.41;46.01;102137.28;4997228;28;8855;-66
2022/07/27 10:12:05;;;;;;;;;0.00;0.00;;;;;19.39;45.15;102133.09;4994614;28;8835;-66
2022/07/27 10:14:32;;;;;;;;;0.00;0.00;;;;;19.45;45.16;102132.22;5013248;28;8819;-66
2022/07/27 10:16:59;;;;;;;;;0.00;0.00;;;;;19.54;45.00;102136.34;4994783;28;9528;-67
2022/07/27 10:19:51;;;;;;;;;0.00;0.00;;;;;19.61;44.45;102136.31;5013009;28;8901;-66
2022/07/27 10:22:50;;;;;;;;;0.50;0.00;;;;;19.68;44.23;102137.09;5010786;28;8831;-66
2022/07/27 10:25:16;;;;;;;;;0.00;0.00;;;;;19.74;43.32;102136.22;5012649;28;8905;-67
2022/07/27 10:27:48;;;;;;;;;0.00;0.00;;;;;19.78;42.63;102137.44;5012765;28;8862;-67
2022/07/27 10:30:16;;;;;;;;;0.00;0.00;;;;;19.82;43.29;102126.91;5012969;28;8840;-66
2022/07/27 10:32:49;;;;;;;;;0.00;0.00;;;;;19.92;43.29;102127.22;5012965;28;8854;-66
2022/07/27 10:35:33;;;;;;;;;0.00;0.00;;;;;19.83;42.65;102134.03;5012895;28;8833;-66
2022/07/27 10:38:43;;;;;;;;;1.00;0.00;;;;;19.73;43.76;102127.19;5012689;28;8855;-66
2022/07/27 10:41:24;;;;;;;;;0.00;0.00;;;;;19.63;43.90;102129.56;5013448;28;8812;-65
2022/07/27 10:44:16;;;;;;;;;0.00;0.00;;;;;19.56;44.00;102123.28;5013766;28;8827;-65
2022/07/27 10:46:57;;;;;;;;;0.00;0.00;;;;;19.64;43.55;102124.94;4996132;28;8911;-65
2022/07/27 10:49:29;;;;;;;;;0.00;0.00;;;;;19.57;43.40;102132.31;5014033;28;8831;-65
2022/07/27 10:51:58;;;;;;;;;0.00;0.00;;;;;19.53;42.66;102134.69;5012162;28;8971;-65
2022/07/27 10:54:29;;;;;;;;;1.00;0.00;;;;;19.48;42.84;102131.75;5014284;28;8824;-65
2022/07/27 10:56:58;;;;;;;;;0.00;0.00;;;;;19.48;43.33;102126.31;5013937;28;8897;-66
2022/07/27 10:59:37;;;;;;;;;0.00;0.00;;;;;19.48;43.57;102134.50;4996187;28;8927;-66
2022/07/27 11:02:38;;;;;;;;;0.00;0.00;;;;;19.46;44.12;102133.91;5013779;28;8827;-65
2022/07/27 11:05:06;;;;;;;;;1.00;0.00;;;;;19.40;44.34;102135.59;5012104;28;8835;-66
2022/07/27 11:07:32;;;;;;;;;0.00;0.00;;;;;19.30;43.97;102138.00;5012687;28;8851;-66
2022/07/27 11:10:11;;;;;;;;;0.00;0.00;;;;;19.25;44.13;102130.47;5012299;28;8854;-66
2022/07/27 11:12:40;;;;;;;;;0.25;0.25;;;;;19.26;44.83;102129.41;5014173;28;8862;-66
2022/07/27 11:15:06;;;;;;;;;0.75;0.00;;;;;19.27;45.67;102139.25;4996552;28;8949;-66
2022/07/27 11:17:33;;;;;;;;;0.00;0.00;;;;;19.27;46.33;102139.25;5013461;28;8803;-66
2022/07/27 11:20:22;;;;;;;;;1.00;1.00;;;;;19.27;46.50;102141.16;5013821;28;8816;-66
2022/07/27 11:22:49;;;;;;;;;1.00;1.00;;;;;19.25;46.51;102141.41;4997443;28;8905;-66
2022/07/27 11:25:36;;;;;;;;;0.25;0.25;;;;;19.26;47.30;102134.88;5017683;28;8900;-66
2022/07/27 11:28:06;;;;;;;;;1.25;0.25;;;;;19.25;47.43;102143.28;4998680;28;8836;-66
2022/07/27 11:30:32;;;;;;;;;0.50;0.50;;;;;19.22;47.59;102144.56;4998775;28;8855;-66
2022/07/27 11:33:02;;;;;;;;;0.00;0.00;;;;;19.21;47.80;102140.16;5016323;28;8836;-66
2022/07/27 11:35:29;;;;;;;;;0.50;0.50;;;;;19.22;48.24;102136.38;5016647;28;8811;-66
2022/07/27 11:38:05;;;;;;;;;0.75;0.75;;;;;19.27;48.30;102142.00;4998263;28;8862;-66
2022/07/27 11:40:43;;;;;;;;;0.00;0.00;;;;;19.31;48.10;102141.56;5016746;28;8850;-65
2022/07/27 11:43:41;;;;;;;;;1.50;1.00;;;;;19.32;47.56;102148.69;5015757;28;8845;-65
2022/07/27 11:46:14;;;;;;;;;2.00;2.00;;;;;19.39;47.57;102138.56;5017009;28;8815;-67
2022/07/27 11:48:57;;;;;;;;;0.00;0.00;;;;;19.55;47.42;102142.66;5015794;28;8831;-65